createdAt,value
2022-08-17T00:01:56.603Z,17.40
2022-08-17T00:04:49.927Z,17.30
2022-08-17T00:07:38.494Z,17.30
2022-08-17T00:10:26.438Z,17.30
2022-08-17T00:13:17.861Z,17.20
2022-08-17T00:16:08.360Z,17.20
2022-08-17T00:19:07.241Z,17.10
2022-08-17T00:22:35.328Z,17.10
2022-08-17T00:25:13.221Z,17.10
2022-08-17T00:28:01.810Z,17.10
2022-08-17T00:30:53.217Z,17.10
2022-08-17T00:33:42.595Z,17.10
2022-08-17T00:36:31.003Z,17.00
2022-08-17T00:39:18.805Z,17.00
2022-08-17T00:42:14.686Z,16.90
2022-08-17T00:45:04.457Z,16.80
2022-08-17T00:47:53.622Z,16.80
2022-08-17T00:50:55.030Z,16.80
2022-08-17T00:53:46.934Z,16.80
2022-08-17T00:56:37.104Z,16.70
2022-08-17T00:59:30.911Z,16.70
2022-08-17T01:02:20.093Z,16.70
2022-08-17T01:05:11.357Z,16.60
2022-08-17T01:08:01.206Z,16.60
2022-08-17T01:10:57.452Z,16.60
2022-08-17T01:13:50.379Z,16.60
2022-08-17T01:16:39.108Z,16.50
2022-08-17T01:19:28.817Z,16.50
2022-08-17T01:22:23.070Z,16.50
2022-08-17T01:25:12.714Z,16.50
2022-08-17T01:28:01.171Z,16.40
2022-08-17T01:30:58.172Z,16.40
2022-08-17T01:33:47.611Z,16.40
2022-08-17T01:36:35.357Z,16.40
2022-08-17T01:39:30.114Z,16.30
2022-08-17T01:42:23.523Z,16.30
2022-08-17T01:45:14.989Z,16.30
2022-08-17T01:48:02.826Z,16.30
2022-08-17T01:50:52.971Z,16.20
2022-08-17T01:53:44.240Z,16.20
2022-08-17T01:56:35.433Z,16.20
2022-08-17T01:59:23.417Z,16.20
2022-08-17T02:02:11.429Z,16.20
2022-08-17T02:05:18.457Z,16.20
2022-08-17T02:08:07.337Z,16.10
2022-08-17T02:10:55.110Z,16.10
2022-08-17T02:13:44.907Z,16.10
2022-08-17T02:16:37.313Z,16.10
2022-08-17T02:19:26.077Z,16.10
2022-08-17T02:22:14.150Z,16.10
2022-08-17T02:25:03.216Z,16.10
2022-08-17T02:27:51.063Z,16.10
2022-08-17T02:31:01.228Z,16.10
2022-08-17T02:34:00.308Z,16.00
2022-08-17T02:36:53.095Z,16.00
2022-08-17T02:39:40.749Z,15.90
2022-08-17T02:42:31.627Z,15.90
2022-08-17T02:45:22.441Z,15.80
2022-08-17T02:48:11.722Z,15.80
2022-08-17T02:50:59.451Z,15.80
2022-08-17T02:53:47.754Z,15.80
2022-08-17T02:56:35.666Z,15.70
2022-08-17T02:59:24.410Z,15.70
2022-08-17T03:02:13.320Z,15.60
2022-08-17T03:05:02.587Z,15.60
2022-08-17T03:07:51.094Z,15.60
2022-08-17T03:10:38.976Z,15.60
2022-08-17T03:13:27.700Z,15.50
2022-08-17T03:16:15.190Z,15.50
2022-08-17T03:19:03.018Z,15.50
2022-08-17T03:21:55.366Z,15.50
2022-08-17T03:24:43.277Z,15.40
2022-08-17T03:27:30.920Z,15.40
2022-08-17T03:30:18.960Z,15.40
2022-08-17T03:33:11.127Z,15.50
2022-08-17T03:36:00.185Z,15.50
2022-08-17T03:38:49.171Z,15.60
2022-08-17T03:41:38.836Z,15.60
2022-08-17T03:44:26.201Z,15.60
2022-08-17T03:47:39.723Z,15.60
2022-08-17T03:50:47.199Z,15.50
2022-08-17T03:54:04.414Z,15.50
2022-08-17T03:57:02.469Z,15.50
2022-08-17T03:59:50.760Z,15.50
2022-08-17T04:02:38.507Z,15.40
2022-08-17T04:05:26.399Z,15.50
2022-08-17T04:08:14.870Z,15.60
2022-08-17T04:11:03.503Z,15.60
2022-08-17T04:13:52.335Z,15.70
2022-08-17T04:16:40.390Z,15.70
2022-08-17T04:19:28.284Z,15.80
2022-08-17T04:22:32.656Z,15.80
2022-08-17T04:25:22.117Z,15.90
2022-08-17T04:28:16.318Z,15.90
2022-08-17T04:31:06.056Z,15.90
2022-08-17T04:33:55.470Z,16.00
2022-08-17T04:36:50.388Z,16.10
2022-08-17T04:39:38.590Z,16.20
2022-08-17T04:42:25.462Z,16.30
2022-08-17T04:45:13.237Z,16.40
2022-08-17T04:48:03.521Z,16.50
2022-08-17T04:50:52.145Z,16.60
2022-08-17T04:53:41.626Z,16.70
2022-08-17T04:56:30.554Z,16.80
2022-08-17T04:59:20.095Z,16.90
2022-08-17T05:02:07.924Z,16.90
2022-08-17T05:04:57.067Z,17.00
2022-08-17T05:07:44.586Z,17.20
2022-08-17T05:10:34.480Z,17.30
2022-08-17T05:13:27.135Z,17.40
2022-08-17T05:16:14.958Z,17.60
2022-08-17T05:19:02.772Z,17.70
2022-08-17T05:21:52.127Z,17.80
2022-08-17T05:24:43.755Z,18.00
2022-08-17T05:27:41.962Z,18.10
2022-08-17T05:30:31.811Z,18.20
2022-08-17T05:33:21.987Z,18.40
2022-08-17T05:36:12.015Z,18.60
2022-08-17T05:39:21.206Z,18.70
2022-08-17T05:42:09.027Z,18.90
2022-08-17T05:44:59.289Z,19.10
2022-08-17T05:47:48.452Z,19.20
2022-08-17T05:50:45.565Z,19.30
2022-08-17T05:53:41.043Z,19.50
2022-08-17T05:56:51.542Z,19.60
2022-08-17T05:59:48.603Z,19.80
2022-08-17T06:02:48.214Z,19.90
2022-08-17T06:05:50.518Z,20.00
2022-08-17T06:08:51.487Z,20.00
2022-08-17T06:11:54.419Z,20.10
2022-08-17T06:14:58.916Z,20.20
2022-08-17T06:17:47.377Z,20.40
2022-08-17T06:20:43.711Z,20.50
2022-08-17T06:23:36.169Z,20.70
2022-08-17T06:26:30.423Z,20.80
2022-08-17T06:29:38.632Z,21.00
2022-08-17T06:32:26.878Z,21.20
2022-08-17T06:35:18.477Z,21.40
2022-08-17T06:38:38.026Z,21.50
2022-08-17T06:41:29.547Z,21.70
2022-08-17T06:44:50.135Z,21.90
2022-08-17T06:47:46.801Z,22.00
2022-08-17T06:50:37.435Z,22.20
2022-08-17T06:53:30.500Z,22.30
2022-08-17T06:56:53.233Z,22.50
2022-08-17T06:59:55.044Z,22.70
2022-08-17T07:02:55.695Z,22.90
2022-08-17T07:05:47.769Z,23.10
2022-08-17T07:08:54.699Z,23.30
2022-08-17T07:11:50.497Z,23.50
2022-08-17T07:14:44.603Z,23.70
2022-08-17T07:17:46.883Z,23.90
2022-08-17T07:20:39.516Z,24.00
2022-08-17T07:23:38.764Z,24.20
2022-08-17T07:26:27.325Z,24.40
2022-08-17T07:29:19.837Z,24.60
2022-08-17T07:32:10.968Z,24.80
2022-08-17T07:35:19.984Z,24.90
2022-08-17T07:38:25.507Z,25.10
2022-08-17T07:41:14.650Z,25.30
2022-08-17T07:44:02.894Z,25.60
2022-08-17T07:47:10.838Z,25.70
2022-08-17T07:49:58.706Z,25.90
2022-08-17T07:52:51.049Z,26.10
2022-08-17T07:55:41.937Z,26.30
2022-08-17T07:58:29.911Z,26.50
2022-08-17T08:01:18.481Z,26.60
2022-08-17T08:07:42.735Z,26.90
2022-08-17T08:10:35.662Z,27.10
2022-08-17T08:13:28.029Z,27.30
2022-08-17T08:16:27.172Z,27.60
2022-08-17T08:19:20.885Z,27.80
2022-08-17T08:22:14.736Z,28.00
2022-08-17T08:25:16.308Z,28.10
2022-08-17T08:28:21.897Z,28.40
2022-08-17T08:31:24.498Z,28.40
2022-08-17T08:34:59.056Z,28.50
2022-08-17T08:37:42.482Z,28.70
2022-08-17T08:40:46.527Z,29.00
2022-08-17T08:43:45.188Z,29.20
2022-08-17T08:46:47.586Z,29.40
2022-08-17T08:50:06.953Z,29.60
2022-08-17T08:53:12.436Z,29.60
2022-08-17T08:56:05.871Z,29.80
2022-08-17T08:59:02.210Z,30.00
2022-08-17T09:02:03.642Z,30.10
2022-08-17T09:05:14.212Z,30.10
2022-08-17T09:08:13.203Z,30.20
2022-08-17T09:11:07.646Z,30.40
2022-08-17T09:14:06.724Z,30.60
2022-08-17T09:17:15.203Z,30.90
2022-08-17T09:20:27.136Z,31.10
2022-08-17T09:23:23.895Z,31.20
2022-08-17T09:26:15.661Z,31.40
2022-08-17T09:29:08.813Z,31.60
2022-08-17T09:31:59.759Z,31.80
2022-08-17T09:34:54.987Z,32.00
2022-08-17T09:37:51.751Z,32.10
2022-08-17T09:40:44.694Z,32.40
2022-08-17T09:43:39.564Z,32.60
2022-08-17T09:46:32.231Z,32.80
2022-08-17T09:49:28.812Z,32.80
2022-08-17T09:52:21.898Z,32.80
2022-08-17T09:55:10.726Z,33.00
2022-08-17T09:58:06.182Z,33.10
2022-08-17T10:01:03.030Z,33.20
2022-08-17T10:04:07.200Z,33.10
2022-08-17T10:07:01.548Z,32.80
2022-08-17T10:09:58.737Z,32.90
2022-08-17T10:12:53.343Z,33.00
2022-08-17T10:15:55.028Z,33.30
2022-08-17T10:18:53.145Z,33.70
2022-08-17T10:22:32.336Z,33.80
2022-08-17T10:25:48.589Z,34.00
2022-08-17T10:28:41.743Z,34.30
2022-08-17T10:31:35.762Z,34.70
2022-08-17T10:34:57.367Z,34.90
2022-08-17T10:38:15.543Z,35.10
2022-08-17T10:41:17.860Z,35.40
2022-08-17T10:44:39.682Z,35.40
2022-08-17T10:47:21.080Z,35.40
2022-08-17T10:50:46.325Z,35.50
2022-08-17T10:53:52.519Z,35.60
2022-08-17T10:56:51.128Z,35.80
2022-08-17T10:59:53.324Z,36.00
2022-08-17T11:02:50.965Z,35.60
2022-08-17T11:05:54.012Z,35.20
2022-08-17T11:09:09.381Z,34.60
2022-08-17T11:12:21.984Z,34.30
2022-08-17T11:15:23.204Z,33.90
2022-08-17T11:18:33.856Z,33.30
2022-08-17T11:21:42.719Z,32.80
2022-08-17T11:24:36.979Z,32.30
2022-08-17T11:27:30.077Z,31.90
2022-08-17T11:30:43.781Z,31.50
2022-08-17T11:34:05.733Z,31.40
2022-08-17T11:37:04.971Z,31.70
2022-08-17T11:40:08.241Z,32.40
2022-08-17T11:43:29.781Z,33.20
2022-08-17T11:46:53.928Z,34.20
2022-08-17T11:50:15.572Z,35.10
2022-08-17T11:53:04.051Z,35.70
2022-08-17T11:56:07.392Z,36.00
2022-08-17T11:58:56.831Z,35.80
2022-08-17T12:01:57.241Z,35.90
2022-08-17T12:05:03.857Z,35.90
2022-08-17T12:07:57.172Z,36.10
2022-08-17T12:11:01.891Z,36.50
2022-08-17T12:13:54.192Z,36.90
2022-08-17T12:16:44.436Z,37.20
2022-08-17T12:19:34.434Z,37.20
2022-08-17T12:22:27.330Z,37.40
2022-08-17T12:25:20.331Z,37.70
2022-08-17T12:28:22.863Z,37.80
2022-08-17T12:31:19.060Z,37.70
2022-08-17T12:34:17.225Z,37.60
2022-08-17T12:37:08.681Z,37.40
2022-08-17T12:39:59.938Z,37.10
2022-08-17T12:42:56.484Z,36.60
2022-08-17T12:45:46.368Z,36.00
2022-08-17T12:48:36.336Z,35.90
2022-08-17T12:51:25.673Z,36.10
2022-08-17T12:54:29.272Z,36.10
2022-08-17T12:57:19.997Z,36.30
2022-08-17T13:00:15.916Z,36.20
2022-08-17T13:03:06.350Z,36.40
2022-08-17T13:05:59.043Z,36.50
2022-08-17T13:08:49.248Z,36.90
2022-08-17T13:11:36.821Z,37.30
2022-08-17T13:14:24.669Z,37.50
2022-08-17T13:17:13.943Z,37.50
2022-08-17T13:20:01.798Z,37.30
2022-08-17T13:22:56.001Z,37.30
2022-08-17T13:25:55.096Z,37.60
2022-08-17T13:28:49.038Z,37.50
2022-08-17T13:31:50.433Z,37.50
2022-08-17T13:34:51.385Z,37.70
2022-08-17T13:38:01.510Z,37.80
2022-08-17T13:40:53.696Z,37.90
2022-08-17T13:43:48.531Z,38.00
2022-08-17T13:46:36.600Z,38.10
2022-08-17T13:49:24.640Z,38.20
2022-08-17T13:52:39.055Z,38.20
2022-08-17T13:55:31.299Z,38.00
2022-08-17T13:58:25.021Z,38.10
2022-08-17T14:01:33.010Z,38.20
2022-08-17T14:04:25.018Z,38.40
2022-08-17T14:07:29.456Z,38.60
2022-08-17T14:10:18.982Z,38.70
2022-08-17T14:13:07.246Z,38.70
2022-08-17T14:15:56.901Z,38.90
2022-08-17T14:18:56.362Z,38.90
2022-08-17T14:21:47.100Z,38.90
2022-08-17T14:24:44.020Z,38.60
2022-08-17T14:27:34.116Z,38.60
2022-08-17T14:30:42.969Z,38.50
2022-08-17T14:33:32.082Z,38.60
2022-08-17T14:36:19.717Z,38.70
2022-08-17T14:39:07.202Z,38.70
2022-08-17T14:41:56.125Z,38.60
2022-08-17T14:44:43.698Z,38.50
2022-08-17T14:47:31.381Z,38.40
2022-08-17T14:50:21.242Z,38.60
2022-08-17T14:53:13.181Z,38.60
2022-08-17T14:56:01.560Z,38.70
2022-08-17T14:58:49.274Z,38.70
2022-08-17T15:01:37.059Z,38.70
2022-08-17T15:04:24.481Z,38.60
2022-08-17T15:07:13.416Z,38.70
2022-08-17T15:10:02.121Z,38.90
2022-08-17T15:12:50.277Z,38.70
2022-08-17T15:15:37.616Z,38.90
2022-08-17T15:18:25.527Z,38.80
2022-08-17T15:21:14.686Z,38.90
2022-08-17T15:24:04.387Z,38.90
2022-08-17T15:26:52.431Z,39.00
2022-08-17T15:29:40.072Z,39.20
2022-08-17T15:32:29.005Z,39.30
2022-08-17T15:35:16.779Z,39.50
2022-08-17T15:38:11.833Z,39.60
2022-08-17T15:41:01.157Z,39.50
2022-08-17T15:43:50.907Z,39.40
2022-08-17T15:46:38.719Z,39.20
2022-08-17T15:49:27.558Z,38.90
2022-08-17T15:52:20.875Z,38.70
2022-08-17T15:55:12.176Z,38.70
2022-08-17T15:58:01.383Z,38.70
2022-08-17T16:00:52.097Z,38.90
2022-08-17T16:03:57.389Z,38.80
2022-08-17T16:06:48.946Z,38.90
2022-08-17T16:09:38.403Z,38.90
2022-08-17T16:12:26.693Z,38.60
2022-08-17T16:15:17.346Z,38.40
2022-08-17T16:18:05.177Z,38.00
2022-08-17T16:20:53.273Z,37.60
2022-08-17T16:23:40.685Z,37.50
2022-08-17T16:26:29.329Z,37.20
2022-08-17T16:29:16.807Z,36.80
2022-08-17T16:32:13.427Z,36.20
2022-08-17T16:35:03.549Z,35.60
2022-08-17T16:37:53.123Z,35.00
2022-08-17T16:40:40.545Z,34.40
2022-08-17T16:43:28.833Z,33.90
2022-08-17T16:46:16.473Z,33.30
2022-08-17T16:49:05.355Z,32.80
2022-08-17T16:51:52.986Z,32.30
2022-08-17T16:54:43.769Z,31.80
2022-08-17T16:57:31.822Z,31.30
2022-08-17T17:00:20.989Z,30.90
2022-08-17T17:03:19.107Z,30.60
2022-08-17T17:06:18.767Z,30.40
2022-08-17T17:09:08.846Z,30.20
2022-08-17T17:12:00.721Z,30.10
2022-08-17T17:14:52.064Z,30.10
2022-08-17T17:17:41.736Z,30.10
2022-08-17T17:20:38.866Z,30.00
2022-08-17T17:23:41.569Z,29.80
2022-08-17T17:26:43.203Z,29.50
2022-08-17T17:29:48.264Z,29.10
2022-08-17T17:32:40.813Z,28.80
2022-08-17T17:35:33.723Z,28.50
2022-08-17T17:38:25.131Z,28.30
2022-08-17T17:41:26.255Z,28.00
2022-08-17T17:44:19.884Z,27.70
2022-08-17T17:47:07.882Z,27.50
2022-08-17T17:49:55.840Z,27.30
2022-08-17T17:52:53.350Z,27.10
2022-08-17T17:55:48.229Z,26.90
2022-08-17T17:58:49.826Z,26.60
2022-08-17T18:01:47.045Z,26.30
2022-08-17T18:04:40.739Z,26.10
2022-08-17T18:07:35.269Z,25.90
2022-08-17T18:10:31.631Z,25.60
2022-08-17T18:13:27.910Z,25.40
2022-08-17T18:16:19.183Z,25.20
2022-08-17T18:19:06.927Z,25.00
2022-08-17T18:22:14.859Z,24.90
2022-08-17T18:25:02.454Z,24.70
2022-08-17T18:27:52.255Z,24.50
2022-08-17T18:30:40.054Z,24.40
2022-08-17T18:33:29.273Z,24.30
2022-08-17T18:36:28.848Z,24.20
2022-08-17T18:39:19.615Z,24.00
2022-08-17T18:42:26.005Z,23.90
2022-08-17T18:45:14.314Z,23.80
2022-08-17T18:48:02.739Z,23.60
2022-08-17T18:50:53.615Z,23.50
2022-08-17T18:53:42.253Z,23.40
2022-08-17T18:56:31.762Z,23.30
2022-08-17T18:59:38.859Z,23.10
2022-08-17T19:02:44.262Z,23.00
2022-08-17T19:05:36.951Z,22.90
2022-08-17T19:08:36.304Z,22.80
2022-08-17T19:11:30.036Z,22.80
2022-08-17T19:14:20.176Z,22.70
2022-08-17T19:17:14.114Z,22.60
2022-08-17T19:20:06.322Z,22.50
2022-08-17T19:23:16.648Z,22.40
2022-08-17T19:26:23.350Z,22.30
2022-08-17T19:29:26.257Z,22.20
2022-08-17T19:32:19.369Z,22.10
2022-08-17T19:35:13.614Z,22.00
2022-08-17T19:38:13.235Z,21.90
2022-08-17T19:41:08.463Z,21.90
2022-08-17T19:44:32.445Z,21.80
2022-08-17T19:47:53.932Z,21.70
2022-08-17T19:50:48.365Z,21.60
2022-08-17T19:54:04.414Z,21.60
2022-08-17T19:57:01.668Z,21.50
2022-08-17T19:59:55.035Z,21.30
2022-08-17T20:02:50.486Z,21.30
2022-08-17T20:06:08.462Z,21.20
2022-08-17T20:08:58.975Z,21.10
2022-08-17T20:11:49.746Z,21.10
2022-08-17T20:14:53.934Z,21.00
2022-08-17T20:17:46.441Z,21.00
2022-08-17T20:20:46.775Z,20.90
2022-08-17T20:23:46.497Z,20.90
2022-08-17T20:26:58.689Z,20.80
2022-08-17T20:30:11.467Z,20.80
2022-08-17T20:33:02.427Z,20.70
2022-08-17T20:36:05.290Z,20.60
2022-08-17T20:38:56.975Z,20.60
2022-08-17T20:42:05.443Z,20.50
2022-08-17T20:44:57.697Z,20.40
2022-08-17T20:48:18.591Z,20.40
2022-08-17T20:51:12.166Z,20.40
2022-08-17T20:54:28.517Z,20.30
2022-08-17T20:57:49.064Z,20.30
2022-08-17T21:00:45.701Z,20.20
2022-08-17T21:03:54.104Z,20.10
2022-08-17T21:07:15.348Z,20.10
2022-08-17T21:10:15.908Z,20.10
2022-08-17T21:13:37.022Z,20.00
2022-08-17T21:16:38.772Z,20.00
2022-08-17T21:20:00.488Z,20.00
2022-08-17T21:23:12.514Z,19.90
2022-08-17T21:26:26.751Z,19.90
2022-08-17T21:29:31.489Z,19.90
2022-08-17T21:32:30.023Z,19.80
2022-08-17T21:35:48.309Z,19.80
2022-08-17T21:38:39.139Z,19.70
2022-08-17T21:41:31.317Z,19.70
2022-08-17T21:44:27.842Z,19.70
2022-08-17T21:47:24.303Z,19.70
2022-08-17T21:50:19.464Z,19.60
2022-08-17T21:53:10.690Z,19.60
2022-08-17T21:55:58.365Z,19.60
2022-08-17T21:58:48.685Z,19.50
2022-08-17T22:01:38.413Z,19.50
2022-08-17T22:04:29.145Z,19.50
2022-08-17T22:07:17.260Z,19.40
2022-08-17T22:10:09.315Z,19.30
2022-08-17T22:13:05.161Z,19.30
2022-08-17T22:16:15.301Z,19.30
2022-08-17T22:19:16.147Z,19.20
2022-08-17T22:22:05.628Z,19.10
2022-08-17T22:24:57.275Z,19.10
2022-08-17T22:27:50.620Z,19.10
2022-08-17T22:30:39.816Z,19.00
2022-08-17T22:33:37.688Z,19.00
2022-08-17T22:36:29.444Z,19.00
2022-08-17T22:39:41.884Z,19.00
2022-08-17T22:42:29.872Z,18.90
2022-08-17T22:45:18.846Z,18.90
2022-08-17T22:48:07.020Z,18.90
2022-08-17T22:51:12.255Z,18.80
2022-08-17T22:54:21.181Z,18.80
2022-08-17T22:57:29.263Z,18.80
2022-08-17T23:00:33.554Z,18.70
2022-08-17T23:03:23.581Z,18.70
2022-08-17T23:06:12.817Z,18.70
2022-08-17T23:09:03.564Z,18.70
2022-08-17T23:11:56.530Z,18.70
2022-08-17T23:14:45.791Z,18.60
2022-08-17T23:17:37.475Z,18.60
2022-08-17T23:20:25.484Z,18.60
2022-08-17T23:23:15.119Z,18.50
2022-08-17T23:26:03.397Z,18.50
2022-08-17T23:28:50.991Z,18.40
2022-08-17T23:31:40.356Z,18.40
2022-08-17T23:34:29.714Z,18.40
2022-08-17T23:37:19.015Z,18.40
2022-08-17T23:40:07.294Z,18.40
2022-08-17T23:42:55.390Z,18.30
2022-08-17T23:45:43.473Z,18.30
2022-08-17T23:48:36.758Z,18.30
2022-08-17T23:51:29.604Z,18.20
2022-08-17T23:54:23.716Z,18.20
2022-08-17T23:57:12.816Z,18.10
